sensor_id;sensor_type;location;lat;lon;timestamp;pressure;altitude;pressure_sealevel;temperature;humidity
61537;BME280;48695;53.480;-6.300;2023-08-30T00:00:07;100533.16;;;15.93;56.62
61537;BME280;48695;53.480;-6.300;2023-08-30T00:02:33;100502.41;;;15.74;56.53
61537;BME280;48695;53.480;-6.300;2023-08-30T00:05:02;100533.28;;;15.90;56.62
61537;BME280;48695;53.480;-6.300;2023-08-30T00:07:28;100533.59;;;15.83;57.61
61537;BME280;48695;53.480;-6.300;2023-08-30T00:09:53;100531.03;;;15.82;57.34
61537;BME280;48695;53.480;-6.300;2023-08-30T00:12:19;100542.53;;;15.79;57.55
61537;BME280;48695;53.480;-6.300;2023-08-30T00:14:44;100533.88;;;15.77;57.58
61537;BME280;48695;53.480;-6.300;2023-08-30T00:17:10;100523.91;;;15.65;57.29
61537;BME280;48695;53.480;-6.300;2023-08-30T00:19:35;100534.19;;;15.71;57.88
61537;BME280;48695;53.480;-6.300;2023-08-30T00:22:01;100536.16;;;15.66;57.72
61537;BME280;48695;53.480;-6.300;2023-08-30T00:24:26;100525.63;;;15.66;57.60
61537;BME280;48695;53.480;-6.300;2023-08-30T00:26:53;100512.88;;;15.57;58.17
61537;BME280;48695;53.480;-6.300;2023-08-30T00:29:19;100524.94;;;15.61;58.31
61537;BME280;48695;53.480;-6.300;2023-08-30T00:31:44;100529.44;;;15.59;58.34
61537;BME280;48695;53.480;-6.300;2023-08-30T00:34:10;100514.06;;;15.50;58.76
61537;BME280;48695;53.480;-6.300;2023-08-30T00:36:35;100517.50;;;15.52;58.42
61537;BME280;48695;53.480;-6.300;2023-08-30T00:39:02;100523.53;;;15.54;58.77
61537;BME280;48695;53.480;-6.300;2023-08-30T00:41:27;100523.59;;;15.52;58.56
61537;BME280;48695;53.480;-6.300;2023-08-30T00:43:53;100525.38;;;15.52;58.87
61537;BME280;48695;53.480;-6.300;2023-08-30T00:46:18;100524.44;;;15.53;58.84
61537;BME280;48695;53.480;-6.300;2023-08-30T00:48:44;100513.06;;;15.52;59.15
61537;BME280;48695;53.480;-6.300;2023-08-30T00:51:10;100512.22;;;15.52;59.12
61537;BME280;48695;53.480;-6.300;2023-08-30T00:53:36;100519.97;;;15.55;59.51
61537;BME280;48695;53.480;-6.300;2023-08-30T00:56:01;100512.91;;;15.55;59.41
61537;BME280;48695;53.480;-6.300;2023-08-30T00:58:27;100512.78;;;15.58;59.56
61537;BME280;48695;53.480;-6.300;2023-08-30T01:00:53;100510.06;;;15.60;59.54
61537;BME280;48695;53.480;-6.300;2023-08-30T01:03:20;100517.03;;;15.61;59.53
61537;BME280;48695;53.480;-6.300;2023-08-30T01:05:47;100509.09;;;15.63;59.74
61537;BME280;48695;53.480;-6.300;2023-08-30T01:08:12;100497.97;;;15.56;59.37
61537;BME280;48695;53.480;-6.300;2023-08-30T01:13:18;100501.00;;;15.67;59.90
61537;BME280;48695;53.480;-6.300;2023-08-30T01:15:46;100506.13;;;15.70;55.66
61537;BME280;48695;53.480;-6.300;2023-08-30T01:18:12;100481.31;;;15.55;59.37
61537;BME280;48695;53.480;-6.300;2023-08-30T01:20:39;100492.31;;;15.65;59.46
61537;BME280;48695;53.480;-6.300;2023-08-30T01:24:02;100499.03;;;15.72;58.00
61537;BME280;48695;53.480;-6.300;2023-08-30T01:26:26;100499.03;;;15.72;57.77
61537;BME280;48695;53.480;-6.300;2023-08-30T01:28:56;100492.94;;;15.70;59.21
61537;BME280;48695;53.480;-6.300;2023-08-30T01:31:23;100476.78;;;15.59;59.61
61537;BME280;48695;53.480;-6.300;2023-08-30T01:33:49;100490.47;;;15.67;59.87
61537;BME280;48695;53.480;-6.300;2023-08-30T01:36:16;100470.66;;;15.58;59.74
61537;BME280;48695;53.480;-6.300;2023-08-30T01:38:42;100469.66;;;15.61;60.05
61537;BME280;48695;53.480;-6.300;2023-08-30T01:41:08;100473.00;;;15.66;60.13
61537;BME280;48695;53.480;-6.300;2023-08-30T01:43:35;100475.63;;;15.66;60.30
61537;BME280;48695;53.480;-6.300;2023-08-30T01:46:01;100473.13;;;15.63;60.49
61537;BME280;48695;53.480;-6.300;2023-08-30T01:48:27;100477.47;;;15.64;60.10
61537;BME280;48695;53.480;-6.300;2023-08-30T01:50:55;100453.38;;;15.53;60.34
61537;BME280;48695;53.480;-6.300;2023-08-30T01:53:24;100477.47;;;15.64;60.66
61537;BME280;48695;53.480;-6.300;2023-08-30T01:55:50;100473.97;;;15.64;60.62
61537;BME280;48695;53.480;-6.300;2023-08-30T01:58:15;100466.06;;;15.64;60.43
61537;BME280;48695;53.480;-6.300;2023-08-30T02:00:41;100473.13;;;15.63;60.41
61537;BME280;48695;53.480;-6.300;2023-08-30T02:03:13;100473.84;;;15.67;59.81
61537;BME280;48695;53.480;-6.300;2023-08-30T02:06:03;100461.56;;;15.66;58.60
61537;BME280;48695;53.480;-6.300;2023-08-30T02:08:37;100473.00;;;15.66;60.28
61537;BME280;48695;53.480;-6.300;2023-08-30T02:11:06;100462.50;;;15.65;60.55
61537;BME280;48695;53.480;-6.300;2023-08-30T02:13:33;100464.28;;;15.64;60.86
61537;BME280;48695;53.480;-6.300;2023-08-30T02:16:00;100471.34;;;15.64;60.80
61537;BME280;48695;53.480;-6.300;2023-08-30T02:18:26;100469.81;;;15.58;61.18
61537;BME280;48695;53.480;-6.300;2023-08-30T02:20:52;100457.63;;;15.55;60.93
61537;BME280;48695;53.480;-6.300;2023-08-30T02:23:17;100469.66;;;15.61;61.10
61537;BME280;48695;53.480;-6.300;2023-08-30T02:25:43;100473.22;;;15.60;60.93
61537;BME280;48695;53.480;-6.300;2023-08-30T02:28:08;100473.38;;;15.57;61.00
61537;BME280;48695;53.480;-6.300;2023-08-30T02:30:33;100468.25;;;15.54;61.19
61537;BME280;48695;53.480;-6.300;2023-08-30T02:32:59;100467.53;;;15.50;60.54
61537;BME280;48695;53.480;-6.300;2023-08-30T02:35:24;100461.59;;;15.47;61.07
61537;BME280;48695;53.480;-6.300;2023-08-30T02:37:50;100466.97;;;15.44;60.89
61537;BME280;48695;53.480;-6.300;2023-08-30T02:40:15;100464.56;;;15.39;61.27
61537;BME280;48695;53.480;-6.300;2023-08-30T02:42:40;100463.84;;;15.36;60.90
61537;BME280;48695;53.480;-6.300;2023-08-30T02:45:06;100467.59;;;15.30;61.18
61537;BME280;48695;53.480;-6.300;2023-08-30T02:47:32;100460.72;;;15.27;61.63
61537;BME280;48695;53.480;-6.300;2023-08-30T02:49:57;100462.72;;;15.22;61.54
61537;BME280;48695;53.480;-6.300;2023-08-30T02:52:23;100461.25;;;15.15;61.75
61537;BME280;48695;53.480;-6.300;2023-08-30T02:54:48;100468.25;;;15.16;61.05
61537;BME280;48695;53.480;-6.300;2023-08-30T02:57:13;100467.53;;;15.13;61.70
61537;BME280;48695;53.480;-6.300;2023-08-30T02:59:39;100468.50;;;15.10;61.79
61537;BME280;48695;53.480;-6.300;2023-08-30T03:02:05;100459.06;;;15.06;61.74
61537;BME280;48695;53.480;-6.300;2023-08-30T03:04:30;100467.09;;;15.03;61.84
61537;BME280;48695;53.480;-6.300;2023-08-30T03:06:56;100461.94;;;15.00;61.71
61537;BME280;48695;53.480;-6.300;2023-08-30T03:09:21;100452.56;;;14.94;62.22
61537;BME280;48695;53.480;-6.300;2023-08-30T03:11:46;100458.84;;;14.92;62.07
61537;BME280;48695;53.480;-6.300;2023-08-30T03:14:12;100461.59;;;14.89;62.09
61537;BME280;48695;53.480;-6.300;2023-08-30T03:16:37;100464.38;;;14.86;61.99
61537;BME280;48695;53.480;-6.300;2023-08-30T03:19:03;100466.16;;;14.85;62.25
61537;BME280;48695;53.480;-6.300;2023-08-30T03:21:28;100464.50;;;14.83;62.29
61537;BME280;48695;53.480;-6.300;2023-08-30T03:23:53;100466.34;;;14.81;62.22
61537;BME280;48695;53.480;-6.300;2023-08-30T03:26:19;100454.09;;;14.79;61.95
61537;BME280;48695;53.480;-6.300;2023-08-30T03:28:44;100449.03;;;14.75;62.52
61537;BME280;48695;53.480;-6.300;2023-08-30T03:31:16;100452.56;;;14.75;61.99
61537;BME280;48695;53.480;-6.300;2023-08-30T03:33:42;100464.03;;;14.73;62.57
61537;BME280;48695;53.480;-6.300;2023-08-30T03:36:10;100451.16;;;14.67;62.59
61537;BME280;48695;53.480;-6.300;2023-08-30T03:38:36;100456.34;;;14.68;62.83
61537;BME280;48695;53.480;-6.300;2023-08-30T03:41:05;100456.50;;;14.65;62.92
61537;BME280;48695;53.480;-6.300;2023-08-30T03:43:31;100460.03;;;14.64;62.96
61537;BME280;48695;53.480;-6.300;2023-08-30T03:45:57;100461.88;;;14.62;62.54
61537;BME280;48695;53.480;-6.300;2023-08-30T03:48:23;100458.47;;;14.60;62.96
61537;BME280;48695;53.480;-6.300;2023-08-30T03:50:48;100456.75;;;14.59;63.20
61537;BME280;48695;53.480;-6.300;2023-08-30T03:53:13;100457.00;;;14.53;63.03
61537;BME280;48695;53.480;-6.300;2023-08-30T03:55:40;100465.69;;;14.55;63.13
61537;BME280;48695;53.480;-6.300;2023-08-30T03:58:06;100471.00;;;14.53;63.07
61537;BME280;48695;53.480;-6.300;2023-08-30T04:00:31;100467.69;;;14.50;63.22
61537;BME280;48695;53.480;-6.300;2023-08-30T04:02:57;100467.69;;;14.50;63.08
61537;BME280;48695;53.480;-6.300;2023-08-30T04:05:22;100477.38;;;14.48;63.58
61537;BME280;48695;53.480;-6.300;2023-08-30T04:07:47;100473.00;;;14.47;63.48
61537;BME280;48695;53.480;-6.300;2023-08-30T04:10:13;100469.59;;;14.45;63.03
61537;BME280;48695;53.480;-6.300;2023-08-30T04:12:38;100472.34;;;14.42;63.54
61537;BME280;48695;53.480;-6.300;2023-08-30T04:15:04;100466.31;;;14.40;63.81
61537;BME280;48695;53.480;-6.300;2023-08-30T04:17:29;100464.59;;;14.39;63.56
61537;BME280;48695;53.480;-6.300;2023-08-30T04:19:55;100463.81;;;14.37;63.63
61537;BME280;48695;53.480;-6.300;2023-08-30T04:22:20;100466.50;;;14.35;63.83
61537;BME280;48695;53.480;-6.300;2023-08-30T04:24:46;100438.97;;;14.23;63.42
61537;BME280;48695;53.480;-6.300;2023-08-30T04:27:12;100450.94;;;14.31;63.52
61537;BME280;48695;53.480;-6.300;2023-08-30T04:29:37;100454.50;;;14.30;63.48
61537;BME280;48695;53.480;-6.300;2023-08-30T04:32:03;100449.34;;;14.26;63.49
61537;BME280;48695;53.480;-6.300;2023-08-30T04:34:29;100457.25;;;14.26;63.98
61537;BME280;48695;53.480;-6.300;2023-08-30T04:36:55;100456.47;;;14.24;63.83
61537;BME280;48695;53.480;-6.300;2023-08-30T04:39:21;100463.53;;;14.22;64.07
61537;BME280;48695;53.480;-6.300;2023-08-30T04:41:46;100454.88;;;14.20;64.10
61537;BME280;48695;53.480;-6.300;2023-08-30T04:44:12;100467.19;;;14.18;63.67
61537;BME280;48695;53.480;-6.300;2023-08-30T04:46:37;100469.03;;;14.16;63.81
61537;BME280;48695;53.480;-6.300;2023-08-30T04:49:03;100471.66;;;14.16;63.79
61537;BME280;48695;53.480;-6.300;2023-08-30T04:51:28;100470.88;;;14.14;63.60
61537;BME280;48695;53.480;-6.300;2023-08-30T04:53:54;100474.41;;;14.13;63.55
61537;BME280;48695;53.480;-6.300;2023-08-30T04:56:19;100470.22;;;14.09;63.50
61537;BME280;48695;53.480;-6.300;2023-08-30T04:58:44;100471.94;;;14.10;63.95
61537;BME280;48695;53.480;-6.300;2023-08-30T05:01:10;100452.31;;;13.97;63.69
61537;BME280;48695;53.480;-6.300;2023-08-30T05:03:38;100470.44;;;14.03;63.52
61537;BME280;48695;53.480;-6.300;2023-08-30T05:06:04;100472.19;;;14.04;63.88
61537;BME280;48695;53.480;-6.300;2023-08-30T05:08:29;100471.38;;;14.02;63.73
61537;BME280;48695;53.480;-6.300;2023-08-30T05:10:54;100467.97;;;14.00;63.59
61537;BME280;48695;53.480;-6.300;2023-08-30T05:13:20;100466.25;;;13.99;63.65
61537;BME280;48695;53.480;-6.300;2023-08-30T05:15:45;100465.44;;;13.97;63.81
61537;BME280;48695;53.480;-6.300;2023-08-30T05:18:11;100462.03;;;13.95;63.91
61537;BME280;48695;53.480;-6.300;2023-08-30T05:20:36;100470.84;;;13.94;63.81
61537;BME280;48695;53.480;-6.300;2023-08-30T05:23:02;100448.69;;;13.79;63.70
61537;BME280;48695;53.480;-6.300;2023-08-30T05:25:27;100467.47;;;13.90;63.33
61537;BME280;48695;53.480;-6.300;2023-08-30T05:27:53;100468.44;;;13.88;63.53
61537;BME280;48695;53.480;-6.300;2023-08-30T05:30:19;100465.88;;;13.86;63.44
61537;BME280;48695;53.480;-6.300;2023-08-30T05:32:44;100475.53;;;13.86;63.90
61537;BME280;48695;53.480;-6.300;2023-08-30T05:35:10;100458.31;;;13.79;63.66
61537;BME280;48695;53.480;-6.300;2023-08-30T05:37:35;100468.69;;;13.82;63.88
61537;BME280;48695;53.480;-6.300;2023-08-30T05:40:01;100468.69;;;13.82;63.21
61537;BME280;48695;53.480;-6.300;2023-08-30T05:42:26;100467.00;;;13.81;63.95
61537;BME280;48695;53.480;-6.300;2023-08-30T05:44:52;100460.03;;;13.80;63.87
61537;BME280;48695;53.480;-6.300;2023-08-30T05:47:18;100460.88;;;13.80;63.87
61537;BME280;48695;53.480;-6.300;2023-08-30T05:49:44;100459.22;;;13.77;63.86
61537;BME280;48695;53.480;-6.300;2023-08-30T05:52:09;100462.78;;;13.76;63.94
61537;BME280;48695;53.480;-6.300;2023-08-30T05:54:35;100468.94;;;13.75;63.76
61537;BME280;48695;53.480;-6.300;2023-08-30T05:57:00;100468.03;;;13.76;63.79
61537;BME280;48695;53.480;-6.300;2023-08-30T05:59:26;100471.56;;;13.75;64.17
61537;BME280;48695;53.480;-6.300;2023-08-30T06:01:51;100460.41;;;13.70;64.11
61537;BME280;48695;53.480;-6.300;2023-08-30T06:04:16;100468.94;;;13.75;64.54
61537;BME280;48695;53.480;-6.300;2023-08-30T06:06:42;100475.88;;;13.76;64.01
61537;BME280;48695;53.480;-6.300;2023-08-30T06:09:07;100477.59;;;13.77;64.12
61537;BME280;48695;53.480;-6.300;2023-08-30T06:11:33;100454.34;;;13.68;64.23
61537;BME280;48695;53.480;-6.300;2023-08-30T06:13:58;100468.81;;;13.79;64.55
61537;BME280;48695;53.480;-6.300;2023-08-30T06:16:24;100471.38;;;13.80;64.41
61537;BME280;48695;53.480;-6.300;2023-08-30T06:18:50;100478.25;;;13.83;64.32
61537;BME280;48695;53.480;-6.300;2023-08-30T06:21:15;100478.16;;;13.86;64.45
61537;BME280;48695;53.480;-6.300;2023-08-30T06:23:41;100475.38;;;13.89;65.10
61537;BME280;48695;53.480;-6.300;2023-08-30T06:26:06;100468.31;;;13.91;64.61
61537;BME280;48695;53.480;-6.300;2023-08-30T06:28:32;100469.06;;;13.94;64.90
61537;BME280;48695;53.480;-6.300;2023-08-30T06:30:57;100467.97;;;14.00;64.80
61537;BME280;48695;53.480;-6.300;2023-08-30T06:33:23;100456.63;;;13.99;65.07
61537;BME280;48695;53.480;-6.300;2023-08-30T06:35:48;100463.22;;;14.08;65.18
61537;BME280;48695;53.480;-6.300;2023-08-30T06:38:16;100457.75;;;14.14;65.21
61537;BME280;48695;53.480;-6.300;2023-08-30T06:40:45;100465.22;;;14.23;64.51
61537;BME280;48695;53.480;-6.300;2023-08-30T06:43:11;100465.13;;;14.26;65.05
61537;BME280;48695;53.480;-6.300;2023-08-30T06:45:38;100461.44;;;14.31;64.99
61537;BME280;48695;53.480;-6.300;2023-08-30T06:48:05;100466.44;;;14.37;64.72
61537;BME280;48695;53.480;-6.300;2023-08-30T06:50:31;100466.19;;;14.43;64.56
61537;BME280;48695;53.480;-6.300;2023-08-30T06:52:56;100449.47;;;14.44;64.80
61537;BME280;48695;53.480;-6.300;2023-08-30T06:55:21;100456.09;;;14.54;64.69
61537;BME280;48695;53.480;-6.300;2023-08-30T06:57:48;100461.09;;;14.60;64.89
61537;BME280;48695;53.480;-6.300;2023-08-30T07:00:14;100452.78;;;14.69;62.09
61537;BME280;48695;53.480;-6.300;2023-08-30T07:02:40;100449.28;;;14.70;64.62
61537;BME280;48695;53.480;-6.300;2023-08-30T07:05:06;100439.59;;;14.71;64.47
61537;BME280;48695;53.480;-6.300;2023-08-30T07:07:31;100456.72;;;14.79;64.73
61537;BME280;48695;53.480;-6.300;2023-08-30T07:09:57;100455.69;;;14.84;64.85
61537;BME280;48695;53.480;-6.300;2023-08-30T07:12:23;100461.66;;;14.87;64.68
61537;BME280;48695;53.480;-6.300;2023-08-30T07:14:48;100458.91;;;14.90;64.79
61537;BME280;48695;53.480;-6.300;2023-08-30T07:17:14;100458.69;;;14.95;64.51
61537;BME280;48695;53.480;-6.300;2023-08-30T07:19:39;100460.25;;;14.99;64.52
61537;BME280;48695;53.480;-6.300;2023-08-30T07:22:04;100453.41;;;14.95;64.83
61537;BME280;48695;53.480;-6.300;2023-08-30T07:24:30;100466.81;;;15.09;64.62
61537;BME280;48695;53.480;-6.300;2023-08-30T07:26:55;100464.81;;;15.14;64.36
61537;BME280;48695;53.480;-6.300;2023-08-30T07:29:21;100465.47;;;15.19;64.26
61537;BME280;48695;53.480;-6.300;2023-08-30T07:31:47;100478.34;;;15.25;64.72
61537;BME280;48695;53.480;-6.300;2023-08-30T07:34:12;100465.81;;;15.30;64.26
61537;BME280;48695;53.480;-6.300;2023-08-30T07:36:38;100466.47;;;15.36;64.45
61537;BME280;48695;53.480;-6.300;2023-08-30T07:39:03;100467.09;;;15.41;64.16
61537;BME280;48695;53.480;-6.300;2023-08-30T07:41:29;100452.25;;;15.40;64.12
61537;BME280;48695;53.480;-6.300;2023-08-30T07:43:54;100467.31;;;15.55;64.54
61537;BME280;48695;53.480;-6.300;2023-08-30T07:46:20;100452.13;;;15.62;64.30
61537;BME280;48695;53.480;-6.300;2023-08-30T07:48:45;100453.47;;;15.70;64.47
61537;BME280;48695;53.480;-6.300;2023-08-30T07:51:11;100453.13;;;15.78;64.12
61537;BME280;48695;53.480;-6.300;2023-08-30T07:53:36;100441.34;;;15.85;64.10
61537;BME280;48695;53.480;-6.300;2023-08-30T07:56:01;100452.38;;;15.93;63.77
61537;BME280;48695;53.480;-6.300;2023-08-30T07:58:27;100451.53;;;15.93;64.15
61537;BME280;48695;53.480;-6.300;2023-08-30T08:00:52;100458.50;;;16.11;64.05
61537;BME280;48695;53.480;-6.300;2023-08-30T08:03:21;100465.19;;;16.18;63.93
61537;BME280;48695;53.480;-6.300;2023-08-30T08:05:47;100464.88;;;16.24;63.90
61537;BME280;48695;53.480;-6.300;2023-08-30T08:08:12;100463.63;;;16.31;64.23
61537;BME280;48695;53.480;-6.300;2023-08-30T08:10:40;100470.13;;;16.42;63.61
61537;BME280;48695;53.480;-6.300;2023-08-30T08:13:06;100443.16;;;16.37;63.46
61537;BME280;48695;53.480;-6.300;2023-08-30T08:15:32;100451.41;;;16.48;63.63
61537;BME280;48695;53.480;-6.300;2023-08-30T08:17:59;100477.13;;;16.60;63.12
61537;BME280;48695;53.480;-6.300;2023-08-30T08:20:24;100473.22;;;16.67;63.32
61537;BME280;48695;53.480;-6.300;2023-08-30T08:22:50;100474.50;;;16.77;63.31
61537;BME280;48695;53.480;-6.300;2023-08-30T08:25:15;100474.81;;;16.89;63.18
61537;BME280;48695;53.480;-6.300;2023-08-30T08:27:41;100476.09;;;16.97;63.23
61537;BME280;48695;53.480;-6.300;2023-08-30T08:30:07;100469.31;;;17.09;63.16
61537;BME280;48695;53.480;-6.300;2023-08-30T08:32:34;100466.16;;;17.18;62.47
61537;BME280;48695;53.480;-6.300;2023-08-30T08:35:00;100467.47;;;17.27;62.48
61537;BME280;48695;53.480;-6.300;2023-08-30T08:37:25;100475.59;;;17.40;62.05
61537;BME280;48695;53.480;-6.300;2023-08-30T08:39:51;100465.44;;;17.48;62.17
61537;BME280;48695;53.480;-6.300;2023-08-30T08:42:18;100463.09;;;17.59;61.52
61537;BME280;48695;53.480;-6.300;2023-08-30T08:44:46;100465.81;;;17.73;61.70
61537;BME280;48695;53.480;-6.300;2023-08-30T08:47:13;100470.44;;;17.85;61.33
61537;BME280;48695;53.480;-6.300;2023-08-30T08:49:39;100470.31;;;18.03;61.52
61537;BME280;48695;53.480;-6.300;2023-08-30T08:52:05;100469.25;;;18.21;60.72
61537;BME280;48695;53.480;-6.300;2023-08-30T08:54:31;100476.88;;;18.41;60.08
61537;BME280;48695;53.480;-6.300;2023-08-30T08:56:57;100469.56;;;18.61;59.90
61537;BME280;48695;53.480;-6.300;2023-08-30T08:59:23;100450.50;;;18.70;59.43
61537;BME280;48695;53.480;-6.300;2023-08-30T09:01:49;100469.16;;;18.97;59.87
61537;BME280;48695;53.480;-6.300;2023-08-30T09:04:15;100460.28;;;19.12;58.94
61537;BME280;48695;53.480;-6.300;2023-08-30T09:06:40;100475.19;;;19.28;58.45
61537;BME280;48695;53.480;-6.300;2023-08-30T09:09:07;100465.50;;;19.41;58.19
61537;BME280;48695;53.480;-6.300;2023-08-30T09:11:33;100465.25;;;19.60;58.07
61537;BME280;48695;53.480;-6.300;2023-08-30T09:13:59;100472.97;;;19.77;57.92
61537;BME280;48695;53.480;-6.300;2023-08-30T09:16:24;100458.91;;;19.89;57.44
61537;BME280;48695;53.480;-6.300;2023-08-30T09:19:00;100468.03;;;20.25;57.66
61537;BME280;48695;53.480;-6.300;2023-08-30T09:21:26;100465.31;;;20.39;56.99
61537;BME280;48695;53.480;-6.300;2023-08-30T09:24:03;100466.22;;;20.65;57.00
61537;BME280;48695;53.480;-6.300;2023-08-30T09:26:29;100471.13;;;20.84;55.79
61537;BME280;48695;53.480;-6.300;2023-08-30T09:29:04;100467.50;;;21.11;55.80
61537;BME280;48695;53.480;-6.300;2023-08-30T09:31:37;100470.34;;;21.33;56.07
61537;BME280;48695;53.480;-6.300;2023-08-30T09:34:03;100470.66;;;21.41;54.57
61537;BME280;48695;53.480;-6.300;2023-08-30T09:36:39;100473.97;;;21.69;54.42
61537;BME280;48695;53.480;-6.300;2023-08-30T09:39:07;100464.16;;;21.82;53.28
61537;BME280;48695;53.480;-6.300;2023-08-30T09:41:34;100466.66;;;21.96;53.21
61537;BME280;48695;53.480;-6.300;2023-08-30T09:44:05;100471.59;;;22.14;52.86
61537;BME280;48695;53.480;-6.300;2023-08-30T09:46:31;100477.94;;;22.35;52.80
61537;BME280;48695;53.480;-6.300;2023-08-30T09:48:56;100469.78;;;22.49;51.56
61537;BME280;48695;53.480;-6.300;2023-08-30T09:51:23;100473.22;;;22.63;50.85
61537;BME280;48695;53.480;-6.300;2023-08-30T09:53:53;100471.03;;;22.68;50.83
61537;BME280;48695;53.480;-6.300;2023-08-30T09:56:23;100476.84;;;22.73;50.78
61537;BME280;48695;53.480;-6.300;2023-08-30T09:58:50;100478.69;;;22.84;50.86
61537;BME280;48695;53.480;-6.300;2023-08-30T10:01:16;100484.19;;;22.93;49.85
61537;BME280;48695;53.480;-6.300;2023-08-30T10:03:42;100487.34;;;22.98;50.04
61537;BME280;48695;53.480;-6.300;2023-08-30T10:06:07;100481.53;;;23.04;49.41
61537;BME280;48695;53.480;-6.300;2023-08-30T10:08:34;100479.34;;;23.10;48.17
61537;BME280;48695;53.480;-6.300;2023-08-30T10:10:59;100475.84;;;23.09;48.86
61537;BME280;48695;53.480;-6.300;2023-08-30T10:13:25;100472.09;;;23.12;49.51
61537;BME280;48695;53.480;-6.300;2023-08-30T10:16:00;100481.53;;;23.27;49.77
61537;BME280;48695;53.480;-6.300;2023-08-30T10:18:29;100466.53;;;23.37;49.73
61537;BME280;48695;53.480;-6.300;2023-08-30T10:20:56;100470.59;;;23.41;48.98
61537;BME280;48695;53.480;-6.300;2023-08-30T10:23:24;100474.47;;;23.60;48.54
61537;BME280;48695;53.480;-6.300;2023-08-30T10:25:50;100468.63;;;23.88;51.31
61537;BME280;48695;53.480;-6.300;2023-08-30T10:28:19;100452.25;;;23.93;48.61
61537;BME280;48695;53.480;-6.300;2023-08-30T10:30:47;100474.56;;;24.24;48.55
61537;BME280;48695;53.480;-6.300;2023-08-30T10:33:13;100473.25;;;24.50;48.31
61537;BME280;48695;53.480;-6.300;2023-08-30T10:35:49;100461.03;;;24.78;49.56
61537;BME280;48695;53.480;-6.300;2023-08-30T10:38:25;100462.41;;;25.15;48.53
61537;BME280;48695;53.480;-6.300;2023-08-30T10:41:06;100466.16;;;25.52;48.74
61537;BME280;48695;53.480;-6.300;2023-08-30T10:43:34;100471.31;;;25.84;47.02
61537;BME280;48695;53.480;-6.300;2023-08-30T10:46:04;100478.97;;;26.28;45.35
61537;BME280;48695;53.480;-6.300;2023-08-30T10:48:39;100465.25;;;26.70;46.25
61537;BME280;48695;53.480;-6.300;2023-08-30T10:51:19;100466.19;;;27.07;45.40
61537;BME280;48695;53.480;-6.300;2023-08-30T10:53:58;100454.91;;;27.31;44.94
61537;BME280;48695;53.480;-6.300;2023-08-30T10:56:30;100452.03;;;27.42;43.19
61537;BME280;48695;53.480;-6.300;2023-08-30T10:58:56;100451.34;;;27.40;41.67
61537;BME280;48695;53.480;-6.300;2023-08-30T11:01:22;100462.28;;;27.47;40.41
61537;BME280;48695;53.480;-6.300;2023-08-30T11:03:49;100473.03;;;27.47;41.40
61537;BME280;48695;53.480;-6.300;2023-08-30T11:06:15;100459.28;;;27.32;40.91
61537;BME280;48695;53.480;-6.300;2023-08-30T11:08:43;100471.84;;;27.32;40.96
61537;BME280;48695;53.480;-6.300;2023-08-30T11:11:10;100465.09;;;27.28;40.71
61537;BME280;48695;53.480;-6.300;2023-08-30T11:13:37;100459.34;;;27.23;39.99
61537;BME280;48695;53.480;-6.300;2023-08-30T11:16:03;100462.69;;;27.25;40.46
61537;BME280;48695;53.480;-6.300;2023-08-30T11:18:30;100449.31;;;27.25;41.08
61537;BME280;48695;53.480;-6.300;2023-08-30T11:21:00;100461.81;;;27.34;41.75
61537;BME280;48695;53.480;-6.300;2023-08-30T11:23:26;100456.47;;;27.34;40.17
61537;BME280;48695;53.480;-6.300;2023-08-30T11:25:52;100460.94;;;27.43;40.07
61537;BME280;48695;53.480;-6.300;2023-08-30T11:28:24;100460.78;;;27.62;40.97
61537;BME280;48695;53.480;-6.300;2023-08-30T11:30:53;100454.84;;;27.68;40.87
61537;BME280;48695;53.480;-6.300;2023-08-30T11:33:18;100454.56;;;27.72;40.17
61537;BME280;48695;53.480;-6.300;2023-08-30T11:35:45;100436.16;;;27.77;39.97
61537;BME280;48695;53.480;-6.300;2023-08-30T11:38:11;100442.22;;;27.97;39.70
61537;BME280;48695;53.480;-6.300;2023-08-30T11:40:36;100452.59;;;28.09;39.92
61537;BME280;48695;53.480;-6.300;2023-08-30T11:43:02;100452.19;;;28.22;40.22
61537;BME280;48695;53.480;-6.300;2023-08-30T11:45:31;100440.69;;;28.30;39.18
61537;BME280;48695;53.480;-6.300;2023-08-30T11:47:58;100452.25;;;28.48;39.17
61537;BME280;48695;53.480;-6.300;2023-08-30T11:50:26;100449.19;;;28.69;39.46
61537;BME280;48695;53.480;-6.300;2023-08-30T11:52:52;100445.81;;;28.85;39.49
61537;BME280;48695;53.480;-6.300;2023-08-30T11:55:18;100432.13;;;29.04;39.71
61537;BME280;48695;53.480;-6.300;2023-08-30T11:57:48;100438.41;;;29.55;38.52
61537;BME280;48695;53.480;-6.300;2023-08-30T12:00:14;100443.34;;;29.84;36.96
61537;BME280;48695;53.480;-6.300;2023-08-30T12:02:40;100443.94;;;30.12;37.24
61537;BME280;48695;53.480;-6.300;2023-08-30T12:05:11;100441.06;;;30.38;38.23
61537;BME280;48695;53.480;-6.300;2023-08-30T12:07:37;100438.53;;;30.37;36.42
61537;BME280;48695;53.480;-6.300;2023-08-30T12:12:31;100446.75;;;30.35;34.08
61537;BME280;48695;53.480;-6.300;2023-08-30T12:14:56;100452.81;;;30.21;35.24
61537;BME280;48695;53.480;-6.300;2023-08-30T12:17:22;100437.81;;;30.02;34.98
61537;BME280;48695;53.480;-6.300;2023-08-30T12:19:57;100449.28;;;29.96;36.17
61537;BME280;48695;53.480;-6.300;2023-08-30T12:22:23;100453.91;;;29.69;35.59
61537;BME280;48695;53.480;-6.300;2023-08-30T12:24:48;100453.56;;;29.56;36.04
61537;BME280;48695;53.480;-6.300;2023-08-30T12:27:14;100447.09;;;29.41;35.72
61537;BME280;48695;53.480;-6.300;2023-08-30T12:29:40;100454.47;;;29.31;35.63
61537;BME280;48695;53.480;-6.300;2023-08-30T12:32:06;100427.47;;;29.14;35.43
61537;BME280;48695;53.480;-6.300;2023-08-30T12:34:32;100427.94;;;29.02;34.59
61537;BME280;48695;53.480;-6.300;2023-08-30T12:36:57;100445.22;;;28.99;35.33
61537;BME280;48695;53.480;-6.300;2023-08-30T12:39:23;100448.16;;;28.88;35.19
61537;BME280;48695;53.480;-6.300;2023-08-30T12:41:49;100451.41;;;28.74;35.02